Stolt Shearwater — ZCRD9 — position and weather

sailwx.info

Track history (hours):
 
Tides and Currents Weather Stations Pressure Air Temp Water Temp Dewpoint Dewpoint Depression Visibility Wind Speed Wind Dir Waves Ship Positions

Stolt Shearwater

Last reported at 2017-Feb-25 04:30 UTC. Time now 2017-Feb-25 05:18 UTC.
Position N 53°19' W 002°57'.

Length 96 m; draft 6.8 m.

Type: Ship (hazmat cat B). MMSI: 319402000.

Date/timePositionNaut miles runAvg speedWind from/ knotsBaromVisibWave heightAir tempDewpointWater temp
2017-Feb-25 04:30N 53°19' W 002°57'0 0.0
2017-Feb-25 03:33N 53°19' W 002°57'0 0.0
2017-Feb-25 02:33N 53°19' W 002°57'0 0.0
2017-Feb-25 01:33N 53°19' W 002°57'0 0.0
2017-Feb-25 00:33N 53°19' W 002°57'0 0.0
2017-Feb-24 23:33N 53°19' W 002°57'0 0.2
2017-Feb-24 22:33N 53°19' W 002°57'5 4.9
2017-Feb-24 21:33N 53°24' W 003°00'1010.4
2017-Feb-24 20:33N 53°31' W 003°12'9 9.0
2017-Feb-24 19:33N 53°29' W 003°27'0 0.0
2017-Feb-24 18:29N 53°29' W 003°27'0 0.1
2017-Feb-24 17:32N 53°29' W 003°27'0 0.0
2017-Feb-24 16:32N 53°29' W 003°27'0 0.1
2017-Feb-24 15:32N 53°29' W 003°27'0 0.0
2017-Feb-24 14:32N 53°29' W 003°27'0 0.1
2017-Feb-24 13:32N 53°29' W 003°27'0 0.0
2017-Feb-24 12:32N 53°29' W 003°27'2 2.1
2017-Feb-24 11:33N 53°30' W 003°31'7 7.5
2017-Feb-24 10:33N 53°31' W 003°43'8 7.5
2017-Feb-24 09:32N 53°31' W 003°56'1 1.2
2017-Feb-24 08:33N 53°31' W 003°58'3 2.5
2017-Feb-24 07:33N 53°31' W 004°02'176 5.3
2017-Feb-22 22:27N 50°49' W 005°52'9 9.6
2017-Feb-22 21:33N 50°40' W 005°53'10 9.4
2017-Feb-22 20:28N 50°30' W 005°53'9 9.4
2017-Feb-22 19:33N 50°21' W 005°53'9 9.1
2017-Feb-22 18:32N 50°12' W 005°53'12 9.0
2017-Feb-22 17:13N 50°00' W 005°53'55 8.0
2017-Feb-22 10:22N 49°53' W 004°28'9 9.2
2017-Feb-22 09:22N 49°54' W 004°14'7 8.8
2017-Feb-22 08:31N 49°54' W 004°02'17 8.6
2017-Feb-22 06:33N 49°56' W 003°36'8 8.3
2017-Feb-22 05:33N 49°57' W 003°23'9 8.0
2017-Feb-22 04:28N 49°58' W 003°10'7 7.7
2017-Feb-22 03:33N 49°58' W 002°59'107 9.8
2017-Feb-21 16:33N 50°28' W 000°18'9 9.0
2017-Feb-21 15:33N 50°31' W 000°04'10 9.6
2017-Feb-21 14:33N 50°33' E 000°10'1010.4
2017-Feb-21 13:33N 50°36' E 000°26'1110.9
2017-Feb-21 12:33N 50°40' E 000°42'1211.3
2017-Feb-21 11:29N 50°48' E 000°57'1011.1
2017-Feb-21 10:32N 50°54' E 001°10'1110.7
2017-Feb-21 09:33N 51°01' E 001°22'1010.1
2017-Feb-21 08:33N 51°08' E 001°34'10 9.7
2017-Feb-21 07:33N 51°14' E 001°46'1010.4
2017-Feb-21 06:33N 51°22' E 001°56'9 9.2
2017-Feb-21 05:33N 51°22' E 002°11'1010.4
2017-Feb-21 04:33N 51°22' E 002°28'1010.0
2017-Feb-21 03:33N 51°22' E 002°44'10 9.8
2017-Feb-21 02:33N 51°23' E 002°59'1111.2
2017-Feb-21 01:33N 51°25' E 003°17'1211.8
2017-Feb-21 00:34N 51°26' E 003°36'7 7.5
2017-Feb-20 23:33N 51°22' E 003°46'1010.2
2017-Feb-20 22:33N 51°26' E 004°01'8 8.0
2017-Feb-20 21:33N 51°23' E 004°13'4 4.0
2017-Feb-20 20:33N 51°21' E 004°17'1 0.7
2017-Feb-20 19:33N 51°20' E 004°18'1 0.0
2017-Feb-19 19:32N 51°20' E 004°18'1 1.2
2017-Feb-19 18:33N 51°21' E 004°17'1 0.9
2017-Feb-19 17:33N 51°21' E 004°16'9 9.3
2017-Feb-19 16:33N 51°24' E 004°02'10 9.9
2017-Feb-19 15:33N 51°21' E 003°47'1211.5
2017-Feb-19 14:33N 51°27' E 003°31'1312.7
2017-Feb-19 13:33N 51°38' E 003°20'9 6.9
2017-Feb-19 12:18N 51°47' E 003°19'2 0.4
2017-Feb-19 08:14N 51°48' E 003°21'0 0.0
2017-Feb-19 07:23N 51°48' E 003°21'0 0.0
2017-Feb-19 06:14N 51°48' E 003°21'0 0.0
2017-Feb-19 05:29N 51°48' E 003°21'0 0.0
2017-Feb-19 04:32N 51°48' E 003°21'3 2.8
2017-Feb-19 03:33N 51°50' E 003°19'54 9.0
2017-Feb-18 21:33N 52°31' E 004°17'10 9.6
2017-Feb-18 20:33N 52°28' E 004°32'3 3.4
2017-Feb-18 19:33N 52°28' E 004°38'7 6.6
2017-Feb-18 18:33N 52°24' E 004°47'0 0.0
2017-Feb-18 17:27N 52°24' E 004°47'0 0.0
2017-Feb-18 16:27N 52°24' E 004°47'0 0.0
2017-Feb-18 15:21N 52°24' E 004°47'0 0.0
2017-Feb-18 14:18N 52°24' E 004°47'0 0.0
2017-Feb-18 13:18N 52°24' E 004°47'0 0.0
2017-Feb-18 12:27N 52°24' E 004°47'0 0.0
2017-Feb-18 11:30N 52°24' E 004°47'0 0.0
2017-Feb-18 10:33N 52°24' E 004°47'0 0.0
2017-Feb-18 09:27N 52°24' E 004°47'0 0.0
2017-Feb-18 08:33N 52°24' E 004°47'0 0.0
2017-Feb-18 07:30N 52°24' E 004°47'0 0.0
2017-Feb-18 06:33N 52°24' E 004°47'0 0.0
2017-Feb-18 05:33N 52°24' E 004°47'0 0.0
2017-Feb-18 04:33N 52°24' E 004°47'0 0.0
2017-Feb-18 03:33N 52°24' E 004°47'0 0.0
2017-Feb-18 02:33N 52°24' E 004°47'0 0.0
2017-Feb-18 01:33N 52°24' E 004°47'0 0.0
2017-Feb-18 00:33N 52°24' E 004°47'0 0.0
2017-Feb-17 23:33N 52°24' E 004°47'0 0.0
2017-Feb-17 22:30N 52°24' E 004°47'0 0.0
2017-Feb-17 21:30N 52°24' E 004°47'0 0.0
2017-Feb-17 20:33N 52°24' E 004°47'0 0.0
2017-Feb-17 19:27N 52°24' E 004°47'0 0.0
2017-Feb-17 18:30N 52°24' E 004°47'0 0.0
2017-Feb-17 17:33N 52°24' E 004°47'0 0.0
2017-Feb-17 16:30N 52°24' E 004°47'0 0.0
2017-Feb-17 15:30N 52°24' E 004°47'2 2.3
2017-Feb-17 14:34N 52°26' E 004°44'5 5.5
2017-Feb-17 13:33N 52°28' E 004°36'9 8.7
2017-Feb-17 12:33N 52°28' E 004°22'8 8.4
2017-Feb-17 11:33N 52°28' E 004°08'0 0.1
2017-Feb-17 10:33N 52°28' E 004°08'0 0.0
2017-Feb-17 09:33N 52°28' E 004°08'0 0.0
2017-Feb-17 08:33N 52°28' E 004°08'0 0.0
2017-Feb-17 07:33N 52°28' E 004°08'0 0.0
2017-Feb-17 05:24N 52°28' E 004°08'0 0.1
2017-Feb-17 04:33N 52°28' E 004°08'0 0.0
2017-Feb-17 03:30N 52°28' E 004°08'0 0.1
2017-Feb-17 02:30N 52°28' E 004°08'0 0.0
2017-Feb-17 01:33N 52°28' E 004°08'0 0.0
2017-Feb-17 00:33N 52°28' E 004°08'0 0.1
2017-Feb-16 23:30N 52°28' E 004°08'0 0.1
2017-Feb-16 22:30N 52°28' E 004°08'0 0.0
2017-Feb-16 21:15N 52°28' E 004°08'0 0.0
2017-Feb-16 20:30N 52°28' E 004°08'0 0.0
2017-Feb-16 19:24N 52°28' E 004°08'0 0.0
2017-Feb-16 17:33N 52°28' E 004°08'2 1.8
2017-Feb-16 16:33N 52°27' E 004°06'1110.5
2017-Feb-16 15:33N 52°24' E 003°49'20 9.6
2017-Feb-16 13:30N 52°15' E 003°20'47 9.6
2017-Feb-16 08:33N 51°40' E 002°28'1411.1
2017-Feb-16 07:18N 51°29' E 002°15'1012.8
2017-Feb-16 06:33N 51°21' E 002°09'1312.6
2017-Feb-16 05:34N 51°11' E 001°55'1414.1
2017-Feb-16 04:33N 51°02' E 001°38'1414.1
2017-Feb-16 03:33N 50°51' E 001°24'5312.8
2017-Feb-15 23:23N 50°22' E 000°14'1214.1
2017-Feb-15 22:33N 50°18' W 000°03'1413.6
2017-Feb-15 21:32N 50°15' W 000°24'1313.0
2017-Feb-15 20:33N 50°11' W 000°43'  
Track history (hours):
 
Tides and Currents Weather Stations Pressure Air Temp Water Temp Dewpoint Dewpoint Depression Visibility Wind Speed Wind Dir Waves Ship Positions

Stolt Shearwater

Last reported at 2017-Feb-25 04:30 UTC. Time now 2017-Feb-25 05:18 UTC.
Position N 53°19' W 002°57'.

Length 96 m; draft 6.8 m.

Type: Ship (hazmat cat B). MMSI: 319402000.

Date/timePositionNaut miles runAvg speedWind from/ knotsBaromVisibWave heightAir tempDewpointWater temp
2017-Feb-25 04:30N 53°19' W 002°57'0 0.0
2017-Feb-25 03:33N 53°19' W 002°57'0 0.0
2017-Feb-25 02:33N 53°19' W 002°57'0 0.0
2017-Feb-25 01:33N 53°19' W 002°57'0 0.0
2017-Feb-25 00:33N 53°19' W 002°57'0 0.0
2017-Feb-24 23:33N 53°19' W 002°57'0 0.2
2017-Feb-24 22:33N 53°19' W 002°57'5 4.9
2017-Feb-24 21:33N 53°24' W 003°00'1010.4
2017-Feb-24 20:33N 53°31' W 003°12'9 9.0
2017-Feb-24 19:33N 53°29' W 003°27'0 0.0
2017-Feb-24 18:29N 53°29' W 003°27'0 0.1
2017-Feb-24 17:32N 53°29' W 003°27'0 0.0
2017-Feb-24 16:32N 53°29' W 003°27'0 0.1
2017-Feb-24 15:32N 53°29' W 003°27'0 0.0
2017-Feb-24 14:32N 53°29' W 003°27'0 0.1
2017-Feb-24 13:32N 53°29' W 003°27'0 0.0
2017-Feb-24 12:32N 53°29' W 003°27'2 2.1
2017-Feb-24 11:33N 53°30' W 003°31'7 7.5
2017-Feb-24 10:33N 53°31' W 003°43'8 7.5
2017-Feb-24 09:32N 53°31' W 003°56'1 1.2
2017-Feb-24 08:33N 53°31' W 003°58'3 2.5
2017-Feb-24 07:33N 53°31' W 004°02'176 5.3
2017-Feb-22 22:27N 50°49' W 005°52'9 9.6
2017-Feb-22 21:33N 50°40' W 005°53'10 9.4
2017-Feb-22 20:28N 50°30' W 005°53'9 9.4
2017-Feb-22 19:33N 50°21' W 005°53'9 9.1
2017-Feb-22 18:32N 50°12' W 005°53'12 9.0
2017-Feb-22 17:13N 50°00' W 005°53'55 8.0
2017-Feb-22 10:22N 49°53' W 004°28'9 9.2
2017-Feb-22 09:22N 49°54' W 004°14'7 8.8
2017-Feb-22 08:31N 49°54' W 004°02'17 8.6
2017-Feb-22 06:33N 49°56' W 003°36'8 8.3
2017-Feb-22 05:33N 49°57' W 003°23'9 8.0
2017-Feb-22 04:28N 49°58' W 003°10'7 7.7
2017-Feb-22 03:33N 49°58' W 002°59'107 9.8
2017-Feb-21 16:33N 50°28' W 000°18'9 9.0
2017-Feb-21 15:33N 50°31' W 000°04'10 9.6
2017-Feb-21 14:33N 50°33' E 000°10'1010.4
2017-Feb-21 13:33N 50°36' E 000°26'1110.9
2017-Feb-21 12:33N 50°40' E 000°42'1211.3
2017-Feb-21 11:29N 50°48' E 000°57'1011.1
2017-Feb-21 10:32N 50°54' E 001°10'1110.7
2017-Feb-21 09:33N 51°01' E 001°22'1010.1
2017-Feb-21 08:33N 51°08' E 001°34'10 9.7
2017-Feb-21 07:33N 51°14' E 001°46'1010.4
2017-Feb-21 06:33N 51°22' E 001°56'9 9.2
2017-Feb-21 05:33N 51°22' E 002°11'1010.4
2017-Feb-21 04:33N 51°22' E 002°28'1010.0
2017-Feb-21 03:33N 51°22' E 002°44'10 9.8
2017-Feb-21 02:33N 51°23' E 002°59'1111.2
2017-Feb-21 01:33N 51°25' E 003°17'1211.8
2017-Feb-21 00:34N 51°26' E 003°36'7 7.5
2017-Feb-20 23:33N 51°22' E 003°46'1010.2
2017-Feb-20 22:33N 51°26' E 004°01'8 8.0
2017-Feb-20 21:33N 51°23' E 004°13'4 4.0
2017-Feb-20 20:33N 51°21' E 004°17'1 0.7
2017-Feb-20 19:33N 51°20' E 004°18'1 0.0
2017-Feb-19 19:32N 51°20' E 004°18'1 1.2
2017-Feb-19 18:33N 51°21' E 004°17'1 0.9
2017-Feb-19 17:33N 51°21' E 004°16'9 9.3
2017-Feb-19 16:33N 51°24' E 004°02'10 9.9
2017-Feb-19 15:33N 51°21' E 003°47'1211.5
2017-Feb-19 14:33N 51°27' E 003°31'1312.7
2017-Feb-19 13:33N 51°38' E 003°20'9 6.9
2017-Feb-19 12:18N 51°47' E 003°19'2 0.4
2017-Feb-19 08:14N 51°48' E 003°21'0 0.0
2017-Feb-19 07:23N 51°48' E 003°21'0 0.0
2017-Feb-19 06:14N 51°48' E 003°21'0 0.0
2017-Feb-19 05:29N 51°48' E 003°21'0 0.0
2017-Feb-19 04:32N 51°48' E 003°21'3 2.8
2017-Feb-19 03:33N 51°50' E 003°19'54 9.0
2017-Feb-18 21:33N 52°31' E 004°17'10 9.6
2017-Feb-18 20:33N 52°28' E 004°32'3 3.4
2017-Feb-18 19:33N 52°28' E 004°38'7 6.6
2017-Feb-18 18:33N 52°24' E 004°47'0 0.0
2017-Feb-18 17:27N 52°24' E 004°47'0 0.0
2017-Feb-18 16:27N 52°24' E 004°47'0 0.0
2017-Feb-18 15:21N 52°24' E 004°47'0 0.0
2017-Feb-18 14:18N 52°24' E 004°47'0 0.0
2017-Feb-18 13:18N 52°24' E 004°47'0 0.0
2017-Feb-18 12:27N 52°24' E 004°47'0 0.0
2017-Feb-18 11:30N 52°24' E 004°47'0 0.0
2017-Feb-18 10:33N 52°24' E 004°47'0 0.0
2017-Feb-18 09:27N 52°24' E 004°47'0 0.0
2017-Feb-18 08:33N 52°24' E 004°47'0 0.0
2017-Feb-18 07:30N 52°24' E 004°47'0 0.0
2017-Feb-18 06:33N 52°24' E 004°47'0 0.0
2017-Feb-18 05:33N 52°24' E 004°47'0 0.0
2017-Feb-18 04:33N 52°24' E 004°47'0 0.0
2017-Feb-18 03:33N 52°24' E 004°47'0 0.0
2017-Feb-18 02:33N 52°24' E 004°47'0 0.0
2017-Feb-18 01:33N 52°24' E 004°47'0 0.0
2017-Feb-18 00:33N 52°24' E 004°47'0 0.0
2017-Feb-17 23:33N 52°24' E 004°47'0 0.0
2017-Feb-17 22:30N 52°24' E 004°47'0 0.0
2017-Feb-17 21:30N 52°24' E 004°47'0 0.0
2017-Feb-17 20:33N 52°24' E 004°47'0 0.0
2017-Feb-17 19:27N 52°24' E 004°47'0 0.0
2017-Feb-17 18:30N 52°24' E 004°47'0 0.0
2017-Feb-17 17:33N 52°24' E 004°47'0 0.0
2017-Feb-17 16:30N 52°24' E 004°47'0 0.0
2017-Feb-17 15:30N 52°24' E 004°47'2 2.3
2017-Feb-17 14:34N 52°26' E 004°44'5 5.5
2017-Feb-17 13:33N 52°28' E 004°36'9 8.7
2017-Feb-17 12:33N 52°28' E 004°22'8 8.4
2017-Feb-17 11:33N 52°28' E 004°08'0 0.1
2017-Feb-17 10:33N 52°28' E 004°08'0 0.0
2017-Feb-17 09:33N 52°28' E 004°08'0 0.0
2017-Feb-17 08:33N 52°28' E 004°08'0 0.0
2017-Feb-17 07:33N 52°28' E 004°08'0 0.0
2017-Feb-17 05:24N 52°28' E 004°08'0 0.1
2017-Feb-17 04:33N 52°28' E 004°08'0 0.0
2017-Feb-17 03:30N 52°28' E 004°08'0 0.1
2017-Feb-17 02:30N 52°28' E 004°08'0 0.0
2017-Feb-17 01:33N 52°28' E 004°08'0 0.0
2017-Feb-17 00:33N 52°28' E 004°08'0 0.1
2017-Feb-16 23:30N 52°28' E 004°08'0 0.1
2017-Feb-16 22:30N 52°28' E 004°08'0 0.0
2017-Feb-16 21:15N 52°28' E 004°08'0 0.0
2017-Feb-16 20:30N 52°28' E 004°08'0 0.0
2017-Feb-16 19:24N 52°28' E 004°08'0 0.0
2017-Feb-16 17:33N 52°28' E 004°08'2 1.8
2017-Feb-16 16:33N 52°27' E 004°06'1110.5
2017-Feb-16 15:33N 52°24' E 003°49'20 9.6
2017-Feb-16 13:30N 52°15' E 003°20'47 9.6
2017-Feb-16 08:33N 51°40' E 002°28'1411.1
2017-Feb-16 07:18N 51°29' E 002°15'1012.8
2017-Feb-16 06:33N 51°21' E 002°09'1312.6
2017-Feb-16 05:34N 51°11' E 001°55'1414.1
2017-Feb-16 04:33N 51°02' E 001°38'1414.1
2017-Feb-16 03:33N 50°51' E 001°24'5312.8
2017-Feb-15 23:23N 50°22' E 000°14'1214.1
2017-Feb-15 22:33N 50°18' W 000°03'1413.6
2017-Feb-15 21:32N 50°15' W 000°24'1313.0
2017-Feb-15 20:33N 50°11' W 000°43'  

Dump ship's entire track history